SCEL/SCL METAR and TAF weather

Enter ICAO airport designator
Station Type Date Time Source
SCEL METAR 2021/04/13 23:00 UTC NOAA

SCEL 132300Z 15012KT CAVOK 22/10 Q1011 NOSIG


Station Type Date Time Source
SCEL Decoded METAR 2021/04/13 23:00 UTC NOAA

Pudahuel, Chile (SCEL) 33-23S 070-47W 476M
Apr 13, 2021 - 07:00 PM EDT / 2021.04.13 2300 UTC
Wind: from the SSE (150 degrees) at 14 MPH (12 KT):0
Visibility: greater than 7 mile(s):0
Temperature: 71 F (22 C)
Dew Point: 50 F (10 C)
Relative Humidity: 46%
Pressure (altimeter): 29.85 in. Hg (1011 hPa)
ob: SCEL 132300Z 15012KT CAVOK 22/10 Q1011 NOSIG
cycle: 23

Station Type Date Time Source
SCEL TAF 2021/04/13 18:03 UTC NOAA

TAF SCEL 131609Z 1318/1418 20012KT CAVOK TX30/1319Z TN08/1411Z
BECMG 1402/1404 16004KT
BECMG 1408/1410 7000
TEMPO 1409/1413 VRB02KT 4000 BR SCT006
BECMG 1415/1417 19008KT CAVOK

Example: see airport list